aviador You're here:

KCKV Decoded Metar

CLARKSVILLE in TN, USA
Report Time2017-09-21 20:52:00
UTC Time2017-09-21 21:09:12
Flight Rules vfr VFR
Wind120° at 10 kt
W.Decomp.*RWY 17: 6.6 kt HW 7.5 kt LCW
RWY 05: 3.3 kt HW 9.5 kt RCW
W.Rank120° ranks 27
Current wind is above 120° avg. (4.6)
Visibility9999 m
Phenomena:N/A
Clouds:Broken 110 Hf
Expected CloudBase > 4,400 ft AGL from Temp-Dew spread
Ceiling11,000 ft
Temp31°C (ISA +17)
Dew Point20°C (52% RH)
Heat Index33.0°C
QNH1016 hPa
Density Alt2,703 ft
Elevation541 ft
Report Wrong Elevation
Raw Report
KCKV 212052Z AUTO 12010KT 10SM BKN110 31/20 A3001 RMK AO2 LTG DSNT
S AND SW SLP157 T03060200 56018=

Extra information for KCKV:More info

Metar Taf Metar & Taf Last 4 Metars F.Rules Stats Wind Profile Meteogram Temp Stats Airport Information Weather charts Add Link Nearby VenuesMetar ALERT Operation Metar Decoded Social comments

AIRNAV info for KCKV